Mexia, TX

2:30 PM CDT on March 28, 2017 (GMT -0500)
Amateur Radio Station KC5PID | | Change Station

Elev 502 ft 31.67 °N, 96.47 °W | Updated 5 seconds ago

Mostly Cloudy
Mostly Cloudy
81.5 °F
Feels Like 85 °F
N
15.0
Wind Variable Wind from East
Gusts 17.0 mph

Today
High -- | Low -- °F
--% Chance of Precip.
Yesterday
High -- | Low -- °F
Precip. -- in
Pressure 29.78 in
Visibility 10.0 miles
Clouds Scattered Clouds 3800 ft
Mostly Cloudy 5000 ft
Heat Index 85 °F
Dew Point 70 °F
Humidity 68%
Rainfall 0.00 in
Snow Depth Not available.
7:19 AM 7:43 PM
New Moon, 1% visible
METAR KLXY 281915Z AUTO 15013G20KT 10SM SCT038 BKN050 27/18 A2978 RMK AO2 T02720183
Pressure 29.78 in
Visibility 10.0 miles
Clouds Scattered Clouds 3800 ft
Mostly Cloudy 5000 ft
Heat Index 85 °F
Dew Point 70 °F
Humidity 68%
Rainfall 0.00 in
Snow Depth Not available.
7:19 AM 7:43 PM
New Moon, 1% visible
METAR KLXY 281915Z AUTO 15013G20KT 10SM SCT038 BKN050 27/18 A2978 RMK AO2 T02720183

Get Severe Weather Alerts

Thanks for signing up!

Be on the lookout for a verification email in your inbox.

You'll start receiving the daily forecast at 8 AM.

×

10-Day Weather Forecast

Almanac

Astronomy

Mar. 28, 2017 Rise Set
Actual Time
Civil Twilight
Nautical Twilight
Astronomical Twilight
Moon
Length of Visible Light
Length of Day
Tomorrow will be .
, % of the Moon is Illuminated

Today's Extremes

State Highs State Lows

Community

WunderPhotos

Upload Photos

1,962,540 photos uploaded!

WunderBlog® & News

Nearby

Air Quality

  Air Quality AQ Index Pollutant
Not available.

Snow Depth

Station Depth Elevation

Earthquake Activity

City Distance Mag. Time & Date
Minimum magnitude displayed is 2.5.

Earthquake Activity

City Distance Mag. Time & Date
Minimum magnitude displayed is 2.5.

Coastal Water Temperatures

Place Temperature

Stations

Nearby Weather Stations

Station Location Temp. Windchill Dew Point Humidity Wind Precip. Elev Updated Type
                   

Watches & Warnings

There are currently no watches in effect.